sensor_id;sensor_type;location;lat;lon;timestamp;temperature;humidity
23291;DHT22;11814;44.686;10.842;2022-09-09T00:04:00;22.60;99.90
23291;DHT22;11814;44.686;10.842;2022-09-09T00:06:30;22.60;99.90
23291;DHT22;11814;44.686;10.842;2022-09-09T00:11:59;22.60;99.90
23291;DHT22;11814;44.686;10.842;2022-09-09T00:16:55;22.50;99.90
23291;DHT22;11814;44.686;10.842;2022-09-09T00:27:27;22.40;99.90
23291;DHT22;11814;44.686;10.842;2022-09-09T00:30:12;22.40;99.90
23291;DHT22;11814;44.686;10.842;2022-09-09T00:32:39;22.30;99.90
23291;DHT22;11814;44.686;10.842;2022-09-09T00:37:44;22.30;99.90
23291;DHT22;11814;44.686;10.842;2022-09-09T00:40:24;22.30;99.90
23291;DHT22;11814;44.686;10.842;2022-09-09T00:43:20;22.20;99.90
23291;DHT22;11814;44.686;10.842;2022-09-09T00:54:40;22.00;99.90
23291;DHT22;11814;44.686;10.842;2022-09-09T00:59:48;22.00;99.90
23291;DHT22;11814;44.686;10.842;2022-09-09T01:05:25;21.80;99.90
23291;DHT22;11814;44.686;10.842;2022-09-09T01:07:52;21.80;99.90
23291;DHT22;11814;44.686;10.842;2022-09-09T01:10:47;21.80;99.90
23291;DHT22;11814;44.686;10.842;2022-09-09T01:13:29;21.80;99.90
23291;DHT22;11814;44.686;10.842;2022-09-09T01:16:00;21.90;99.90
23291;DHT22;11814;44.686;10.842;2022-09-09T01:18:40;21.90;99.90
23291;DHT22;11814;44.686;10.842;2022-09-09T01:21:33;21.90;99.90
23291;DHT22;11814;44.686;10.842;2022-09-09T01:24:12;21.80;99.90
23291;DHT22;11814;44.686;10.842;2022-09-09T01:26:45;21.80;99.90
23291;DHT22;11814;44.686;10.842;2022-09-09T01:29:14;21.80;99.90
23291;DHT22;11814;44.686;10.842;2022-09-09T01:34:14;21.80;99.90
23291;DHT22;11814;44.686;10.842;2022-09-09T01:39:21;21.70;99.90
23291;DHT22;11814;44.686;10.842;2022-09-09T01:41:47;21.60;99.90
23291;DHT22;11814;44.686;10.842;2022-09-09T01:44:13;21.60;99.90
23291;DHT22;11814;44.686;10.842;2022-09-09T01:46:38;21.60;99.90
23291;DHT22;11814;44.686;10.842;2022-09-09T01:49:06;21.60;99.90
23291;DHT22;11814;44.686;10.842;2022-09-09T01:51:34;21.60;99.90
23291;DHT22;11814;44.686;10.842;2022-09-09T01:54:01;21.60;99.90
23291;DHT22;11814;44.686;10.842;2022-09-09T01:56:47;21.60;99.90
23291;DHT22;11814;44.686;10.842;2022-09-09T01:59:34;21.60;99.90
23291;DHT22;11814;44.686;10.842;2022-09-09T02:02:11;21.60;99.90
23291;DHT22;11814;44.686;10.842;2022-09-09T02:04:40;21.60;99.90
23291;DHT22;11814;44.686;10.842;2022-09-09T02:07:48;21.60;99.90
23291;DHT22;11814;44.686;10.842;2022-09-09T02:10:24;21.70;99.90
23291;DHT22;11814;44.686;10.842;2022-09-09T02:12:58;21.70;99.90
23291;DHT22;11814;44.686;10.842;2022-09-09T02:15:35;21.70;99.90
23291;DHT22;11814;44.686;10.842;2022-09-09T02:18:08;21.70;99.90
23291;DHT22;11814;44.686;10.842;2022-09-09T02:20:38;21.70;99.90
23291;DHT22;11814;44.686;10.842;2022-09-09T02:23:06;21.60;99.90
23291;DHT22;11814;44.686;10.842;2022-09-09T02:25:33;21.60;99.90
23291;DHT22;11814;44.686;10.842;2022-09-09T02:28:01;21.50;99.90
23291;DHT22;11814;44.686;10.842;2022-09-09T02:30:29;21.40;99.90
23291;DHT22;11814;44.686;10.842;2022-09-09T02:32:58;21.30;99.90
23291;DHT22;11814;44.686;10.842;2022-09-09T02:35:28;21.20;99.90
23291;DHT22;11814;44.686;10.842;2022-09-09T02:37:59;21.10;99.90
23291;DHT22;11814;44.686;10.842;2022-09-09T02:40:26;21.10;99.90
23291;DHT22;11814;44.686;10.842;2022-09-09T02:42:54;21.10;99.90
23291;DHT22;11814;44.686;10.842;2022-09-09T02:45:24;21.10;99.90
23291;DHT22;11814;44.686;10.842;2022-09-09T02:53:20;21.20;99.90
23291;DHT22;11814;44.686;10.842;2022-09-09T02:55:49;21.30;99.90
23291;DHT22;11814;44.686;10.842;2022-09-09T02:58:17;21.30;99.90
23291;DHT22;11814;44.686;10.842;2022-09-09T03:00:48;21.30;99.90
23291;DHT22;11814;44.686;10.842;2022-09-09T03:03:15;21.30;99.90
23291;DHT22;11814;44.686;10.842;2022-09-09T03:05:43;21.30;99.90
23291;DHT22;11814;44.686;10.842;2022-09-09T03:08:08;21.30;99.90
23291;DHT22;11814;44.686;10.842;2022-09-09T03:10:35;21.30;99.90
23291;DHT22;11814;44.686;10.842;2022-09-09T03:13:00;21.20;99.90
23291;DHT22;11814;44.686;10.842;2022-09-09T03:15:26;21.10;99.90
23291;DHT22;11814;44.686;10.842;2022-09-09T03:17:56;21.10;99.90
23291;DHT22;11814;44.686;10.842;2022-09-09T03:20:26;21.10;99.90
23291;DHT22;11814;44.686;10.842;2022-09-09T03:22:53;21.10;99.90
23291;DHT22;11814;44.686;10.842;2022-09-09T03:25:19;21.10;99.90
23291;DHT22;11814;44.686;10.842;2022-09-09T03:27:45;21.00;99.90
23291;DHT22;11814;44.686;10.842;2022-09-09T03:30:11;21.00;99.90
23291;DHT22;11814;44.686;10.842;2022-09-09T03:32:37;21.00;99.90
23291;DHT22;11814;44.686;10.842;2022-09-09T03:35:03;21.00;99.90
23291;DHT22;11814;44.686;10.842;2022-09-09T03:37:29;20.90;99.90
23291;DHT22;11814;44.686;10.842;2022-09-09T03:39:54;20.90;99.90
23291;DHT22;11814;44.686;10.842;2022-09-09T03:42:20;20.90;99.90
23291;DHT22;11814;44.686;10.842;2022-09-09T03:44:47;20.90;99.90
23291;DHT22;11814;44.686;10.842;2022-09-09T03:47:16;20.80;99.90
23291;DHT22;11814;44.686;10.842;2022-09-09T03:49:41;20.80;99.90
23291;DHT22;11814;44.686;10.842;2022-09-09T03:52:08;20.80;99.90
23291;DHT22;11814;44.686;10.842;2022-09-09T03:54:34;20.80;99.90
23291;DHT22;11814;44.686;10.842;2022-09-09T03:57:01;20.80;99.90
23291;DHT22;11814;44.686;10.842;2022-09-09T03:59:26;20.80;99.90
23291;DHT22;11814;44.686;10.842;2022-09-09T04:01:52;20.80;99.90
23291;DHT22;11814;44.686;10.842;2022-09-09T04:04:18;20.70;99.90
23291;DHT22;11814;44.686;10.842;2022-09-09T04:06:45;20.70;99.90
23291;DHT22;11814;44.686;10.842;2022-09-09T04:09:11;20.70;99.90
23291;DHT22;11814;44.686;10.842;2022-09-09T04:11:37;20.70;99.90
23291;DHT22;11814;44.686;10.842;2022-09-09T04:14:03;20.70;99.90
23291;DHT22;11814;44.686;10.842;2022-09-09T04:16:32;20.70;99.90
23291;DHT22;11814;44.686;10.842;2022-09-09T04:18:58;20.70;99.90
23291;DHT22;11814;44.686;10.842;2022-09-09T04:21:25;20.70;99.90
23291;DHT22;11814;44.686;10.842;2022-09-09T04:23:52;20.60;99.90
23291;DHT22;11814;44.686;10.842;2022-09-09T04:26:18;20.70;99.90
23291;DHT22;11814;44.686;10.842;2022-09-09T04:28:43;20.60;99.90
23291;DHT22;11814;44.686;10.842;2022-09-09T04:31:20;20.60;99.90
23291;DHT22;11814;44.686;10.842;2022-09-09T04:33:48;20.50;99.90
23291;DHT22;11814;44.686;10.842;2022-09-09T04:36:14;20.40;99.90
23291;DHT22;11814;44.686;10.842;2022-09-09T04:38:41;20.40;99.90
23291;DHT22;11814;44.686;10.842;2022-09-09T04:41:07;20.40;99.90
23291;DHT22;11814;44.686;10.842;2022-09-09T04:43:33;20.40;99.90
23291;DHT22;11814;44.686;10.842;2022-09-09T04:45:59;20.40;99.90
23291;DHT22;11814;44.686;10.842;2022-09-09T04:48:25;20.30;99.90
23291;DHT22;11814;44.686;10.842;2022-09-09T04:51:11;20.30;99.90
23291;DHT22;11814;44.686;10.842;2022-09-09T04:53:37;20.20;99.90
23291;DHT22;11814;44.686;10.842;2022-09-09T04:56:16;20.20;99.90
23291;DHT22;11814;44.686;10.842;2022-09-09T04:58:42;20.10;99.90
23291;DHT22;11814;44.686;10.842;2022-09-09T05:01:20;20.10;99.90
23291;DHT22;11814;44.686;10.842;2022-09-09T05:03:50;20.10;99.90
23291;DHT22;11814;44.686;10.842;2022-09-09T05:06:19;20.10;99.90
23291;DHT22;11814;44.686;10.842;2022-09-09T05:08:45;20.00;99.90
23291;DHT22;11814;44.686;10.842;2022-09-09T05:13:44;20.00;99.90
23291;DHT22;11814;44.686;10.842;2022-09-09T05:16:10;20.00;99.90
23291;DHT22;11814;44.686;10.842;2022-09-09T05:18:39;20.10;99.90
23291;DHT22;11814;44.686;10.842;2022-09-09T05:21:06;20.00;99.90
23291;DHT22;11814;44.686;10.842;2022-09-09T05:23:35;20.00;99.90
23291;DHT22;11814;44.686;10.842;2022-09-09T05:26:02;20.10;99.90
23291;DHT22;11814;44.686;10.842;2022-09-09T05:28:28;20.00;99.90
23291;DHT22;11814;44.686;10.842;2022-09-09T05:31:00;20.00;99.90
23291;DHT22;11814;44.686;10.842;2022-09-09T05:33:27;20.00;99.90
23291;DHT22;11814;44.686;10.842;2022-09-09T05:36:06;20.10;99.90
23291;DHT22;11814;44.686;10.842;2022-09-09T05:38:34;20.20;99.90
23291;DHT22;11814;44.686;10.842;2022-09-09T05:41:00;20.20;99.90
23291;DHT22;11814;44.686;10.842;2022-09-09T05:43:28;20.30;99.90
23291;DHT22;11814;44.686;10.842;2022-09-09T05:46:05;20.40;99.90
23291;DHT22;11814;44.686;10.842;2022-09-09T05:48:33;20.50;99.90
23291;DHT22;11814;44.686;10.842;2022-09-09T05:51:00;20.50;99.90
23291;DHT22;11814;44.686;10.842;2022-09-09T05:53:29;20.60;99.90
23291;DHT22;11814;44.686;10.842;2022-09-09T05:56:08;20.60;99.90
23291;DHT22;11814;44.686;10.842;2022-09-09T05:58:36;20.80;99.90
23291;DHT22;11814;44.686;10.842;2022-09-09T06:01:06;20.90;99.90
23291;DHT22;11814;44.686;10.842;2022-09-09T06:03:39;21.00;99.90
23291;DHT22;11814;44.686;10.842;2022-09-09T06:06:07;21.00;99.90
23291;DHT22;11814;44.686;10.842;2022-09-09T06:08:34;21.00;99.90
23291;DHT22;11814;44.686;10.842;2022-09-09T06:11:07;21.10;99.90
23291;DHT22;11814;44.686;10.842;2022-09-09T06:13:33;21.10;99.90
23291;DHT22;11814;44.686;10.842;2022-09-09T06:16:00;21.10;99.90
23291;DHT22;11814;44.686;10.842;2022-09-09T06:18:26;21.20;99.90
23291;DHT22;11814;44.686;10.842;2022-09-09T06:20:58;21.20;99.90
23291;DHT22;11814;44.686;10.842;2022-09-09T06:23:26;21.30;99.90
23291;DHT22;11814;44.686;10.842;2022-09-09T06:26:00;21.50;99.90
23291;DHT22;11814;44.686;10.842;2022-09-09T06:28:25;21.70;99.90
23291;DHT22;11814;44.686;10.842;2022-09-09T06:30:58;21.90;99.90
23291;DHT22;11814;44.686;10.842;2022-09-09T06:33:24;22.00;99.90
23291;DHT22;11814;44.686;10.842;2022-09-09T06:35:53;22.20;99.90
23291;DHT22;11814;44.686;10.842;2022-09-09T06:38:20;22.50;99.90
23291;DHT22;11814;44.686;10.842;2022-09-09T06:40:57;22.90;99.90
23291;DHT22;11814;44.686;10.842;2022-09-09T06:43:24;23.00;99.60
23291;DHT22;11814;44.686;10.842;2022-09-09T06:45:55;23.10;99.30
23291;DHT22;11814;44.686;10.842;2022-09-09T06:48:21;23.20;99.40
23291;DHT22;11814;44.686;10.842;2022-09-09T06:50:47;23.40;99.40
23291;DHT22;11814;44.686;10.842;2022-09-09T06:53:18;23.60;99.30
23291;DHT22;11814;44.686;10.842;2022-09-09T06:55:45;23.60;99.60
23291;DHT22;11814;44.686;10.842;2022-09-09T06:58:11;23.70;99.90
23291;DHT22;11814;44.686;10.842;2022-09-09T07:00:36;23.70;99.90
23291;DHT22;11814;44.686;10.842;2022-09-09T07:03:05;23.80;99.90
23291;DHT22;11814;44.686;10.842;2022-09-09T07:05:31;23.80;99.90
23291;DHT22;11814;44.686;10.842;2022-09-09T07:07:57;23.80;99.90
23291;DHT22;11814;44.686;10.842;2022-09-09T07:10:24;23.80;99.90
23291;DHT22;11814;44.686;10.842;2022-09-09T07:12:53;23.80;99.90
23291;DHT22;11814;44.686;10.842;2022-09-09T07:15:19;23.90;99.90
23291;DHT22;11814;44.686;10.842;2022-09-09T07:17:45;23.90;99.90
23291;DHT22;11814;44.686;10.842;2022-09-09T07:20:11;24.00;99.90
23291;DHT22;11814;44.686;10.842;2022-09-09T07:22:37;24.10;99.90
23291;DHT22;11814;44.686;10.842;2022-09-09T07:25:04;24.20;99.90
23291;DHT22;11814;44.686;10.842;2022-09-09T07:27:29;24.40;99.90
23291;DHT22;11814;44.686;10.842;2022-09-09T07:29:55;24.50;99.90
23291;DHT22;11814;44.686;10.842;2022-09-09T07:32:21;24.80;99.90
23291;DHT22;11814;44.686;10.842;2022-09-09T07:34:47;25.30;99.90
23291;DHT22;11814;44.686;10.842;2022-09-09T07:37:13;25.80;99.90
23291;DHT22;11814;44.686;10.842;2022-09-09T07:39:39;26.10;99.90
23291;DHT22;11814;44.686;10.842;2022-09-09T07:42:05;26.40;99.10
23291;DHT22;11814;44.686;10.842;2022-09-09T07:44:30;26.50;98.20
23291;DHT22;11814;44.686;10.842;2022-09-09T07:47:00;26.40;97.80
23291;DHT22;11814;44.686;10.842;2022-09-09T07:49:26;26.20;97.70
23291;DHT22;11814;44.686;10.842;2022-09-09T07:51:51;26.10;98.00
23291;DHT22;11814;44.686;10.842;2022-09-09T07:54:18;26.10;97.90
23291;DHT22;11814;44.686;10.842;2022-09-09T07:56:49;26.10;97.90
23291;DHT22;11814;44.686;10.842;2022-09-09T07:59:16;26.20;97.60
23291;DHT22;11814;44.686;10.842;2022-09-09T08:01:47;26.30;96.70
23291;DHT22;11814;44.686;10.842;2022-09-09T08:04:16;26.40;95.50
23291;DHT22;11814;44.686;10.842;2022-09-09T08:06:45;26.40;94.40
23291;DHT22;11814;44.686;10.842;2022-09-09T08:09:12;26.30;94.30
23291;DHT22;11814;44.686;10.842;2022-09-09T08:11:39;26.20;94.50
23291;DHT22;11814;44.686;10.842;2022-09-09T08:14:06;26.30;94.60
23291;DHT22;11814;44.686;10.842;2022-09-09T08:16:35;26.50;94.80
23291;DHT22;11814;44.686;10.842;2022-09-09T08:19:03;26.70;94.20
23291;DHT22;11814;44.686;10.842;2022-09-09T08:21:31;26.70;93.80
23291;DHT22;11814;44.686;10.842;2022-09-09T08:23:58;26.80;93.80
23291;DHT22;11814;44.686;10.842;2022-09-09T08:26:27;27.00;93.60
23291;DHT22;11814;44.686;10.842;2022-09-09T08:28:54;27.20;93.10
23291;DHT22;11814;44.686;10.842;2022-09-09T08:31:30;27.40;92.50
23291;DHT22;11814;44.686;10.842;2022-09-09T08:33:57;27.40;92.70
23291;DHT22;11814;44.686;10.842;2022-09-09T08:36:26;27.10;93.00
23291;DHT22;11814;44.686;10.842;2022-09-09T08:38:54;27.00;93.60
23291;DHT22;11814;44.686;10.842;2022-09-09T08:52:30;26.80;94.70
23291;DHT22;11814;44.686;10.842;2022-09-09T08:55:10;26.70;94.60
23291;DHT22;11814;44.686;10.842;2022-09-09T08:57:38;26.60;94.80
23291;DHT22;11814;44.686;10.842;2022-09-09T09:00:05;26.60;95.00
23291;DHT22;11814;44.686;10.842;2022-09-09T09:03:18;26.60;95.00
23291;DHT22;11814;44.686;10.842;2022-09-09T09:06:04;26.60;94.80
23291;DHT22;11814;44.686;10.842;2022-09-09T09:08:39;26.60;94.60
23291;DHT22;11814;44.686;10.842;2022-09-09T09:11:07;26.60;94.50
23291;DHT22;11814;44.686;10.842;2022-09-09T09:13:54;26.60;94.60
23291;DHT22;11814;44.686;10.842;2022-09-09T09:16:30;26.60;94.30
23291;DHT22;11814;44.686;10.842;2022-09-09T09:18:59;26.70;94.10
23291;DHT22;11814;44.686;10.842;2022-09-09T09:21:41;26.80;93.90
23291;DHT22;11814;44.686;10.842;2022-09-09T09:26:59;26.90;93.90
23291;DHT22;11814;44.686;10.842;2022-09-09T09:29:26;27.00;93.80
23291;DHT22;11814;44.686;10.842;2022-09-09T09:31:55;27.10;93.90
23291;DHT22;11814;44.686;10.842;2022-09-09T09:34:22;27.20;94.00
23291;DHT22;11814;44.686;10.842;2022-09-09T09:36:59;27.40;93.40
23291;DHT22;11814;44.686;10.842;2022-09-09T09:39:30;27.40;92.50
23291;DHT22;11814;44.686;10.842;2022-09-09T09:41:57;27.50;92.30
23291;DHT22;11814;44.686;10.842;2022-09-09T09:44:31;27.50;92.30
23291;DHT22;11814;44.686;10.842;2022-09-09T09:47:18;27.60;92.10
23291;DHT22;11814;44.686;10.842;2022-09-09T09:49:58;27.70;91.80
23291;DHT22;11814;44.686;10.842;2022-09-09T09:52:29;27.80;91.70
23291;DHT22;11814;44.686;10.842;2022-09-09T09:54:57;27.80;91.60
23291;DHT22;11814;44.686;10.842;2022-09-09T09:57:30;27.90;91.40
23291;DHT22;11814;44.686;10.842;2022-09-09T10:02:39;28.10;90.00
23291;DHT22;11814;44.686;10.842;2022-09-09T10:05:17;28.10;89.70
23291;DHT22;11814;44.686;10.842;2022-09-09T10:07:44;28.20;89.90
23291;DHT22;11814;44.686;10.842;2022-09-09T10:15:55;28.40;89.00
23291;DHT22;11814;44.686;10.842;2022-09-09T10:21:20;28.40;87.90
23291;DHT22;11814;44.686;10.842;2022-09-09T10:40:46;28.60;83.20
23291;DHT22;11814;44.686;10.842;2022-09-09T10:48:43;28.90;81.80
23291;DHT22;11814;44.686;10.842;2022-09-09T10:56:17;29.10;79.40
23291;DHT22;11814;44.686;10.842;2022-09-09T10:59:13;29.10;79.30
23291;DHT22;11814;44.686;10.842;2022-09-09T11:04:29;29.20;78.50
23291;DHT22;11814;44.686;10.842;2022-09-09T11:07:02;29.20;76.00
23291;DHT22;11814;44.686;10.842;2022-09-09T11:09:35;29.10;75.90
23291;DHT22;11814;44.686;10.842;2022-09-09T11:12:02;29.10;75.00
23291;DHT22;11814;44.686;10.842;2022-09-09T11:14:49;29.10;74.80
23291;DHT22;11814;44.686;10.842;2022-09-09T11:17:20;29.20;74.00
23291;DHT22;11814;44.686;10.842;2022-09-09T11:19:47;29.30;73.40
23291;DHT22;11814;44.686;10.842;2022-09-09T11:22:44;29.30;73.40
23291;DHT22;11814;44.686;10.842;2022-09-09T11:25:16;29.40;72.30
23291;DHT22;11814;44.686;10.842;2022-09-09T11:33:47;29.40;71.60
23291;DHT22;11814;44.686;10.842;2022-09-09T11:41:48;29.50;70.90
23291;DHT22;11814;44.686;10.842;2022-09-09T11:44:23;29.50;71.10
23291;DHT22;11814;44.686;10.842;2022-09-09T11:46:51;29.50;71.20
23291;DHT22;11814;44.686;10.842;2022-09-09T11:49:41;29.60;70.70
23291;DHT22;11814;44.686;10.842;2022-09-09T11:52:23;29.70;70.90
23291;DHT22;11814;44.686;10.842;2022-09-09T11:54:50;29.70;72.10
23291;DHT22;11814;44.686;10.842;2022-09-09T11:57:32;29.60;74.30
23291;DHT22;11814;44.686;10.842;2022-09-09T11:59:59;29.50;77.60
23291;DHT22;11814;44.686;10.842;2022-09-09T12:02:28;29.40;78.90
23291;DHT22;11814;44.686;10.842;2022-09-09T12:05:08;29.30;80.40
23291;DHT22;11814;44.686;10.842;2022-09-09T12:07:50;29.30;81.30
23291;DHT22;11814;44.686;10.842;2022-09-09T12:10:20;29.30;81.80
23291;DHT22;11814;44.686;10.842;2022-09-09T12:12:47;29.30;81.40
23291;DHT22;11814;44.686;10.842;2022-09-09T12:15:26;29.30;81.50
23291;DHT22;11814;44.686;10.842;2022-09-09T12:17:56;29.40;82.40
23291;DHT22;11814;44.686;10.842;2022-09-09T12:31:44;29.40;79.80
23291;DHT22;11814;44.686;10.842;2022-09-09T12:36:53;29.60;75.80
23291;DHT22;11814;44.686;10.842;2022-09-09T12:42:23;29.60;73.90
23291;DHT22;11814;44.686;10.842;2022-09-09T12:44:58;29.60;73.50
23291;DHT22;11814;44.686;10.842;2022-09-09T12:47:45;29.70;73.30
23291;DHT22;11814;44.686;10.842;2022-09-09T12:50:21;29.70;73.00
23291;DHT22;11814;44.686;10.842;2022-09-09T12:52:50;29.70;73.10
23291;DHT22;11814;44.686;10.842;2022-09-09T12:55:23;29.60;73.50
23291;DHT22;11814;44.686;10.842;2022-09-09T12:57:51;29.70;74.00
23291;DHT22;11814;44.686;10.842;2022-09-09T13:00:18;29.70;74.30
23291;DHT22;11814;44.686;10.842;2022-09-09T13:02:51;29.70;74.50
23291;DHT22;11814;44.686;10.842;2022-09-09T13:05:38;29.60;74.00
23291;DHT22;11814;44.686;10.842;2022-09-09T13:08:12;29.60;74.20
23291;DHT22;11814;44.686;10.842;2022-09-09T13:13:16;29.70;74.00
23291;DHT22;11814;44.686;10.842;2022-09-09T13:15:54;29.70;73.30
23291;DHT22;11814;44.686;10.842;2022-09-09T13:18:26;29.70;72.40
23291;DHT22;11814;44.686;10.842;2022-09-09T13:20:54;29.80;72.30
23291;DHT22;11814;44.686;10.842;2022-09-09T13:23:31;29.80;72.50
23291;DHT22;11814;44.686;10.842;2022-09-09T13:26:06;29.80;72.90
23291;DHT22;11814;44.686;10.842;2022-09-09T13:28:44;29.80;73.00
23291;DHT22;11814;44.686;10.842;2022-09-09T13:31:29;29.80;72.90
23291;DHT22;11814;44.686;10.842;2022-09-09T13:33:55;29.70;72.30
23291;DHT22;11814;44.686;10.842;2022-09-09T13:36:32;29.70;72.10
23291;DHT22;11814;44.686;10.842;2022-09-09T13:39:00;29.70;71.80
23291;DHT22;11814;44.686;10.842;2022-09-09T13:41:36;29.80;71.70
23291;DHT22;11814;44.686;10.842;2022-09-09T13:44:03;29.80;71.70
23291;DHT22;11814;44.686;10.842;2022-09-09T13:46:36;29.80;71.80
23291;DHT22;11814;44.686;10.842;2022-09-09T13:51:41;29.70;71.50
23291;DHT22;11814;44.686;10.842;2022-09-09T13:54:11;29.50;71.20
23291;DHT22;11814;44.686;10.842;2022-09-09T13:56:38;29.50;71.30
23291;DHT22;11814;44.686;10.842;2022-09-09T13:59:06;29.40;71.70
23291;DHT22;11814;44.686;10.842;2022-09-09T14:01:34;29.40;72.10
23291;DHT22;11814;44.686;10.842;2022-09-09T14:04:00;29.40;72.10
23291;DHT22;11814;44.686;10.842;2022-09-09T14:06:26;29.30;72.10
23291;DHT22;11814;44.686;10.842;2022-09-09T14:08:56;29.40;72.50
23291;DHT22;11814;44.686;10.842;2022-09-09T14:11:22;29.40;72.30
23291;DHT22;11814;44.686;10.842;2022-09-09T14:13:48;29.40;72.30
23291;DHT22;11814;44.686;10.842;2022-09-09T14:16:18;29.40;72.20
23291;DHT22;11814;44.686;10.842;2022-09-09T14:18:45;29.30;72.00
23291;DHT22;11814;44.686;10.842;2022-09-09T14:21:11;29.30;72.20
23291;DHT22;11814;44.686;10.842;2022-09-09T14:23:37;29.30;72.50
23291;DHT22;11814;44.686;10.842;2022-09-09T14:26:07;29.30;72.70
23291;DHT22;11814;44.686;10.842;2022-09-09T14:28:33;29.30;72.90
23291;DHT22;11814;44.686;10.842;2022-09-09T14:31:00;29.30;72.80
23291;DHT22;11814;44.686;10.842;2022-09-09T14:33:26;29.20;72.80
23291;DHT22;11814;44.686;10.842;2022-09-09T14:35:58;29.30;73.10
23291;DHT22;11814;44.686;10.842;2022-09-09T14:38:25;29.30;73.10
23291;DHT22;11814;44.686;10.842;2022-09-09T14:40:51;29.20;72.90
23291;DHT22;11814;44.686;10.842;2022-09-09T14:43:16;29.20;73.10
23291;DHT22;11814;44.686;10.842;2022-09-09T14:45:42;29.10;73.30
23291;DHT22;11814;44.686;10.842;2022-09-09T14:48:08;29.10;73.60
23291;DHT22;11814;44.686;10.842;2022-09-09T14:50:34;29.00;73.70
23291;DHT22;11814;44.686;10.842;2022-09-09T14:53:02;29.00;73.60
23291;DHT22;11814;44.686;10.842;2022-09-09T14:55:27;28.90;73.30
23291;DHT22;11814;44.686;10.842;2022-09-09T14:57:54;28.80;73.20
23291;DHT22;11814;44.686;10.842;2022-09-09T15:00:20;28.80;73.00
23291;DHT22;11814;44.686;10.842;2022-09-09T15:02:45;28.90;72.90
23291;DHT22;11814;44.686;10.842;2022-09-09T15:05:11;28.90;72.60
23291;DHT22;11814;44.686;10.842;2022-09-09T15:07:37;29.00;72.90
23291;DHT22;11814;44.686;10.842;2022-09-09T15:10:03;29.00;71.80
23291;DHT22;11814;44.686;10.842;2022-09-09T15:12:29;29.00;72.00
23291;DHT22;11814;44.686;10.842;2022-09-09T15:14:55;29.00;72.50
23291;DHT22;11814;44.686;10.842;2022-09-09T15:17:21;29.00;73.10
23291;DHT22;11814;44.686;10.842;2022-09-09T15:19:47;28.90;73.30
23291;DHT22;11814;44.686;10.842;2022-09-09T15:22:13;29.00;73.20
23291;DHT22;11814;44.686;10.842;2022-09-09T15:24:38;29.10;73.10
23291;DHT22;11814;44.686;10.842;2022-09-09T15:27:04;29.20;73.30
23291;DHT22;11814;44.686;10.842;2022-09-09T15:29:29;29.30;73.10
23291;DHT22;11814;44.686;10.842;2022-09-09T15:31:56;29.20;72.60
23291;DHT22;11814;44.686;10.842;2022-09-09T15:34:22;29.10;72.20
23291;DHT22;11814;44.686;10.842;2022-09-09T15:36:48;29.00;72.10
23291;DHT22;11814;44.686;10.842;2022-09-09T15:39:15;28.90;72.10
23291;DHT22;11814;44.686;10.842;2022-09-09T15:41:42;28.90;72.90
23291;DHT22;11814;44.686;10.842;2022-09-09T15:44:09;28.80;73.60
23291;DHT22;11814;44.686;10.842;2022-09-09T15:46:48;28.80;74.00
23291;DHT22;11814;44.686;10.842;2022-09-09T15:51:43;28.70;74.50
23291;DHT22;11814;44.686;10.842;2022-09-09T15:54:10;28.60;74.70
23291;DHT22;11814;44.686;10.842;2022-09-09T15:56:37;28.60;74.80
23291;DHT22;11814;44.686;10.842;2022-09-09T15:59:03;28.50;74.80
23291;DHT22;11814;44.686;10.842;2022-09-09T16:01:30;28.50;75.10
23291;DHT22;11814;44.686;10.842;2022-09-09T16:03:57;28.50;75.40
23291;DHT22;11814;44.686;10.842;2022-09-09T16:06:24;28.40;75.30
23291;DHT22;11814;44.686;10.842;2022-09-09T16:08:51;28.40;75.40
23291;DHT22;11814;44.686;10.842;2022-09-09T16:13:46;28.40;75.80
23291;DHT22;11814;44.686;10.842;2022-09-09T16:16:14;28.40;76.20
23291;DHT22;11814;44.686;10.842;2022-09-09T16:18:52;28.30;76.60
23291;DHT22;11814;44.686;10.842;2022-09-09T16:21:23;28.30;77.00
23291;DHT22;11814;44.686;10.842;2022-09-09T16:23:51;28.30;77.10
23291;DHT22;11814;44.686;10.842;2022-09-09T16:26:17;28.30;77.20
23291;DHT22;11814;44.686;10.842;2022-09-09T16:28:43;28.20;77.50
23291;DHT22;11814;44.686;10.842;2022-09-09T16:31:12;28.20;78.10
23291;DHT22;11814;44.686;10.842;2022-09-09T16:33:39;28.20;78.70
23291;DHT22;11814;44.686;10.842;2022-09-09T16:36:10;28.20;78.50
23291;DHT22;11814;44.686;10.842;2022-09-09T16:38:36;28.20;78.10
23291;DHT22;11814;44.686;10.842;2022-09-09T16:41:04;28.10;78.20
23291;DHT22;11814;44.686;10.842;2022-09-09T16:43:34;28.00;78.40
23291;DHT22;11814;44.686;10.842;2022-09-09T16:46:14;28.00;78.60
23291;DHT22;11814;44.686;10.842;2022-09-09T16:48:42;27.90;78.70
23291;DHT22;11814;44.686;10.842;2022-09-09T16:51:13;27.90;78.90
23291;DHT22;11814;44.686;10.842;2022-09-09T16:53:40;27.80;79.10
23291;DHT22;11814;44.686;10.842;2022-09-09T16:56:09;27.80;79.40
23291;DHT22;11814;44.686;10.842;2022-09-09T16:58:35;27.80;79.60
23291;DHT22;11814;44.686;10.842;2022-09-09T17:01:02;27.70;79.90
23291;DHT22;11814;44.686;10.842;2022-09-09T17:03:32;27.60;80.50
23291;DHT22;11814;44.686;10.842;2022-09-09T17:05:58;27.60;80.90
23291;DHT22;11814;44.686;10.842;2022-09-09T17:08:30;27.60;81.00
23291;DHT22;11814;44.686;10.842;2022-09-09T17:10:57;27.60;81.20
23291;DHT22;11814;44.686;10.842;2022-09-09T17:13:23;27.50;81.40
23291;DHT22;11814;44.686;10.842;2022-09-09T17:15:49;27.40;81.70
23291;DHT22;11814;44.686;10.842;2022-09-09T17:18:15;27.40;81.80
23291;DHT22;11814;44.686;10.842;2022-09-09T17:20:42;27.30;81.80
23291;DHT22;11814;44.686;10.842;2022-09-09T17:23:10;27.20;81.70
23291;DHT22;11814;44.686;10.842;2022-09-09T17:25:37;27.10;81.50
23291;DHT22;11814;44.686;10.842;2022-09-09T17:28:03;27.10;81.40
23291;DHT22;11814;44.686;10.842;2022-09-09T17:30:36;27.00;81.40
23291;DHT22;11814;44.686;10.842;2022-09-09T17:33:03;27.00;81.40
23291;DHT22;11814;44.686;10.842;2022-09-09T17:35:30;26.90;81.40
23291;DHT22;11814;44.686;10.842;2022-09-09T17:37:55;26.90;81.70
23291;DHT22;11814;44.686;10.842;2022-09-09T17:40:22;26.80;81.80
23291;DHT22;11814;44.686;10.842;2022-09-09T17:42:47;26.80;81.90
23291;DHT22;11814;44.686;10.842;2022-09-09T17:45:14;26.70;82.00
23291;DHT22;11814;44.686;10.842;2022-09-09T17:47:40;26.60;82.00
23291;DHT22;11814;44.686;10.842;2022-09-09T17:50:08;26.50;82.00
23291;DHT22;11814;44.686;10.842;2022-09-09T17:52:34;26.40;82.10